createdAt,value
2022-08-10T00:01:51.361Z,82.07
2022-08-10T00:04:24.535Z,81.84
2022-08-10T00:06:54.675Z,81.57
2022-08-10T00:09:23.029Z,80.73
2022-08-10T00:11:52.197Z,77.01
2022-08-10T00:14:19.874Z,80.15
2022-08-10T00:16:48.019Z,72.79
2022-08-10T00:19:16.594Z,72.59
2022-08-10T00:21:47.469Z,74.13
2022-08-10T00:24:15.449Z,72.10
2022-08-10T00:27:52.616Z,72.78
2022-08-10T00:29:32.196Z,70.48
2022-08-10T00:32:00.063Z,65.68
2022-08-10T00:34:35.189Z,63.60
2022-08-10T00:37:03.066Z,63.33
2022-08-10T00:39:36.426Z,57.87
2022-08-10T00:42:13.300Z,57.57
2022-08-10T00:44:49.090Z,57.28
2022-08-10T00:47:36.054Z,55.85
2022-08-10T00:50:08.951Z,55.99
2022-08-10T00:52:39.334Z,54.36
2022-08-10T00:55:08.751Z,53.84
2022-08-10T00:57:36.710Z,54.45
2022-08-10T01:00:06.232Z,53.71
2022-08-10T01:02:34.330Z,51.52
2022-08-10T01:05:09.664Z,50.20
2022-08-10T01:08:00.945Z,52.97
2022-08-10T01:10:38.852Z,51.69
2022-08-10T01:13:06.574Z,48.30
2022-08-10T01:15:43.320Z,48.83
2022-08-10T01:18:21.788Z,49.97
2022-08-10T01:21:04.354Z,48.25
2022-08-10T01:24:15.847Z,49.14
2022-08-10T01:27:07.485Z,48.30
2022-08-10T01:30:00.989Z,47.73
2022-08-10T01:33:01.478Z,47.97
2022-08-10T01:36:08.247Z,48.17
2022-08-10T01:38:50.093Z,47.89
2022-08-10T01:41:26.486Z,47.33
2022-08-10T01:44:15.258Z,48.28
2022-08-10T01:46:56.595Z,47.84
2022-08-10T01:49:26.631Z,48.37
2022-08-10T01:52:00.626Z,47.03
2022-08-10T01:54:30.302Z,48.07
2022-08-10T01:57:00.420Z,47.83
2022-08-10T01:59:32.309Z,48.17
2022-08-10T02:02:12.099Z,49.29
2022-08-10T02:04:41.921Z,50.37
2022-08-10T02:07:19.486Z,47.83
2022-08-10T02:09:51.679Z,48.46
2022-08-10T02:12:31.689Z,47.30
2022-08-10T02:15:10.857Z,48.05
2022-08-10T02:17:57.295Z,47.63
2022-08-10T02:20:39.981Z,47.90
2022-08-10T02:23:11.778Z,48.20
2022-08-10T02:25:43.641Z,49.18
2022-08-10T02:28:29.917Z,49.76
2022-08-10T02:31:06.176Z,50.31
2022-08-10T02:33:45.507Z,50.51
2022-08-10T02:36:33.109Z,50.06
2022-08-10T02:39:03.062Z,48.74
2022-08-10T02:45:12.480Z,49.80
2022-08-10T02:45:17.970Z,49.50
2022-08-10T02:47:55.947Z,49.37
2022-08-10T02:50:32.048Z,48.74
2022-08-10T02:53:06.761Z,48.44
2022-08-10T02:55:46.625Z,48.12
2022-08-10T02:58:33.155Z,48.52
2022-08-10T03:01:09.842Z,47.83
2022-08-10T03:04:09.318Z,48.89
2022-08-10T03:06:44.288Z,48.57
2022-08-10T03:09:15.159Z,47.71
2022-08-10T03:12:35.507Z,47.05
2022-08-10T03:14:40.691Z,47.47
2022-08-10T03:17:13.662Z,49.00
2022-08-10T03:20:33.268Z,47.73
2022-08-10T03:22:41.283Z,47.95
2022-08-10T03:25:16.480Z,48.44
2022-08-10T03:27:47.471Z,48.62
2022-08-10T03:30:29.601Z,48.67
2022-08-10T03:33:07.409Z,49.70
2022-08-10T03:36:43.365Z,48.51
2022-08-10T03:38:34.085Z,48.80
2022-08-10T03:41:08.063Z,49.39
2022-08-10T03:43:41.684Z,48.45
2022-08-10T05:56:22.156Z,50.83
2022-08-10T05:58:50.072Z,50.47
2022-08-10T06:02:31.477Z,49.50
2022-08-10T06:05:36.763Z,49.52
2022-08-10T06:08:12.569Z,48.80
2022-08-10T06:12:16.497Z,47.49
2022-08-10T06:13:59.817Z,46.84
2022-08-10T06:16:40.846Z,45.49
2022-08-10T06:19:10.248Z,45.61
2022-08-10T06:21:39.412Z,45.26
2022-08-10T06:24:25.469Z,43.62
2022-08-10T06:26:59.373Z,42.88
2022-08-10T06:29:30.867Z,42.00
2022-08-10T06:31:59.973Z,41.08
2022-08-10T06:34:32.038Z,39.06
2022-08-10T06:37:03.134Z,37.89
2022-08-10T06:39:34.590Z,37.16
2022-08-10T06:42:16.310Z,36.59
2022-08-10T06:44:56.833Z,36.23
2022-08-10T06:47:29.739Z,36.76
2022-08-10T06:50:02.793Z,38.21
2022-08-10T06:52:38.431Z,37.77
2022-08-10T06:55:10.335Z,39.61
2022-08-10T06:57:40.479Z,38.85
2022-08-10T07:00:10.056Z,38.24
2022-08-10T07:03:01.772Z,37.69
2022-08-10T07:05:38.318Z,34.71
2022-08-10T07:08:09.723Z,32.44
2022-08-10T07:10:41.260Z,32.88
2022-08-10T07:14:17.435Z,30.66
2022-08-10T07:16:08.381Z,30.48
2022-08-10T07:18:38.632Z,31.64
2022-08-10T07:21:08.131Z,30.54
2022-08-10T07:23:57.888Z,27.97
2022-08-10T08:32:40.603Z,29.26
2022-08-10T08:40:43.484Z,25.81
2022-08-10T08:44:48.031Z,29.10
2022-08-10T08:48:04.504Z,29.56
2022-08-10T08:50:14.743Z,28.09
2022-08-10T08:53:02.999Z,30.61
2022-08-10T08:56:06.112Z,30.58
2022-08-10T08:59:02.497Z,27.89
2022-08-10T09:01:58.621Z,27.94
2022-08-10T09:04:44.690Z,28.95
2022-08-10T09:07:39.528Z,29.91
2022-08-10T09:10:19.396Z,29.74
2022-08-10T09:13:01.519Z,28.60
2022-08-10T09:15:41.747Z,28.26
2022-08-10T09:18:21.532Z,30.06
2022-08-10T09:20:48.959Z,30.05
2022-08-10T09:24:01.808Z,28.50
2022-08-10T09:26:22.197Z,29.11
2022-08-10T09:29:11.906Z,29.07
2022-08-10T09:36:13.293Z,27.70
2022-08-10T09:36:25.566Z,27.24
2022-08-10T09:38:37.880Z,29.06
2022-08-10T09:41:35.996Z,28.28
2022-08-10T09:44:33.944Z,28.35
2022-08-10T09:48:10.729Z,28.33
2022-08-10T09:54:04.657Z,27.57
2022-08-10T09:56:59.809Z,26.61
2022-08-10T10:00:01.304Z,29.90
2022-08-10T10:02:44.204Z,29.59
2022-08-10T10:05:51.290Z,30.24
2022-08-10T10:08:42.318Z,29.78
2022-08-10T10:11:35.386Z,30.29
2022-08-10T10:14:30.508Z,30.72
2022-08-10T10:17:15.107Z,28.49
2022-08-10T10:20:09.778Z,30.67
2022-08-10T10:22:59.279Z,30.84
2022-08-10T10:25:50.340Z,29.59
2022-08-10T10:28:50.138Z,28.44
2022-08-10T10:31:38.440Z,30.31
2022-08-10T10:34:25.956Z,33.12
2022-08-10T10:36:57.932Z,30.52
2022-08-10T10:39:28.459Z,32.19
2022-08-10T10:42:45.096Z,31.20
2022-08-10T10:45:23.789Z,31.75
2022-08-10T10:48:17.774Z,31.35
2022-08-10T10:51:24.343Z,30.62
2022-08-10T10:54:13.488Z,31.44
2022-08-10T10:57:16.427Z,31.48
2022-08-10T11:00:11.337Z,31.61
2022-08-10T11:03:04.438Z,38.09
2022-08-10T11:05:55.222Z,30.91
2022-08-10T11:08:28.989Z,31.15
2022-08-10T11:12:01.885Z,31.52
2022-08-10T11:14:37.305Z,31.62
2022-08-10T11:17:49.497Z,31.04
2022-08-10T11:20:59.672Z,30.90
2022-08-10T11:24:42.676Z,31.45
2022-08-10T11:27:05.815Z,33.01
2022-08-10T11:29:49.955Z,30.02
2022-08-10T11:32:26.198Z,32.80
2022-08-10T11:35:18.886Z,30.90
2022-08-10T11:38:32.112Z,31.90
2022-08-10T11:41:05.576Z,36.27
2022-08-10T11:44:01.348Z,35.26
2022-08-10T11:46:35.031Z,34.74
2022-08-10T11:49:12.151Z,32.79
2022-08-10T11:51:48.079Z,32.94
2022-08-10T11:54:40.946Z,36.27
2022-08-10T11:57:10.537Z,33.25
2022-08-10T11:59:59.657Z,33.05
2022-08-10T12:02:31.536Z,33.34
2022-08-10T12:05:10.810Z,33.22
2022-08-10T12:08:54.767Z,36.38
2022-08-10T12:10:40.654Z,35.26
2022-08-10T12:13:11.679Z,32.27
2022-08-10T12:15:48.368Z,32.87
2022-08-10T12:18:24.213Z,37.40
2022-08-10T12:21:01.346Z,33.27
2022-08-10T12:23:48.231Z,32.81
2022-08-10T12:26:38.203Z,33.02
2022-08-10T12:29:25.481Z,32.35
2022-08-10T12:32:27.306Z,32.78
2022-08-10T12:35:12.348Z,32.96
2022-08-10T12:38:06.090Z,32.51
2022-08-10T12:40:42.268Z,33.93
2022-08-10T12:44:06.867Z,33.25
2022-08-10T12:46:18.501Z,35.59
2022-08-10T12:49:00.171Z,32.43
2022-08-10T12:51:30.531Z,32.99
2022-08-10T12:54:16.727Z,33.54
2022-08-10T12:57:10.385Z,33.69
2022-08-10T12:59:44.170Z,34.15
2022-08-10T13:02:21.595Z,33.08
2022-08-10T13:04:51.719Z,34.22
2022-08-10T13:08:25.393Z,33.48
2022-08-10T13:10:16.347Z,35.03
2022-08-10T13:12:48.901Z,37.56
2022-08-10T13:15:49.969Z,35.43
2022-08-10T13:18:28.917Z,33.22
2022-08-10T13:21:20.964Z,32.58
2022-08-10T13:24:04.094Z,33.05
2022-08-10T13:26:38.886Z,32.87
2022-08-10T13:29:33.269Z,34.11
2022-08-10T13:32:09.706Z,33.37
2022-08-10T13:34:45.727Z,33.25
2022-08-10T13:37:21.460Z,32.55
2022-08-10T13:39:59.108Z,34.74
2022-08-10T13:42:33.075Z,32.29
2022-08-10T13:45:16.510Z,36.63
2022-08-10T13:47:50.165Z,33.22
2022-08-10T13:50:33.310Z,36.19
2022-08-10T13:53:13.892Z,34.48
2022-08-10T13:56:01.656Z,32.89
2022-08-10T13:58:30.771Z,33.40
2022-08-10T14:01:10.140Z,34.75
2022-08-10T14:03:40.771Z,34.46
2022-08-10T14:06:15.449Z,33.02
2022-08-10T14:08:48.600Z,34.95
2022-08-10T14:11:18.415Z,34.73
2022-08-10T14:13:53.186Z,32.79
2022-08-10T14:16:22.288Z,33.59
2022-08-10T14:18:57.014Z,33.27
2022-08-10T14:21:32.038Z,33.67
2022-08-10T14:24:09.281Z,35.89
2022-08-10T14:26:50.708Z,33.14
2022-08-10T14:29:49.138Z,35.66
2022-08-10T14:32:19.044Z,32.77
2022-08-10T14:36:15.052Z,35.46
2022-08-10T14:37:50.874Z,34.20
2022-08-10T14:40:22.307Z,33.94
2022-08-10T14:42:52.817Z,33.56
2022-08-10T14:45:32.029Z,33.08
2022-08-10T14:48:10.084Z,33.18
2022-08-10T14:50:55.879Z,33.22
2022-08-10T14:53:36.547Z,33.73
2022-08-10T14:56:09.685Z,33.19
2022-08-10T14:59:06.054Z,33.02
2022-08-10T15:01:59.926Z,33.04
2022-08-10T15:04:24.804Z,34.10
2022-08-10T15:07:03.049Z,34.30
2022-08-10T15:10:01.445Z,33.81
2022-08-10T15:12:38.342Z,32.91
2022-08-10T15:15:18.057Z,33.37
2022-08-10T15:17:58.837Z,34.79
2022-08-10T15:20:29.804Z,34.25
2022-08-10T15:23:31.220Z,33.35
2022-08-10T15:26:10.965Z,34.08
2022-08-10T15:29:24.427Z,33.99
2022-08-10T15:31:56.476Z,34.12
2022-08-10T15:34:44.563Z,33.86
2022-08-10T15:37:36.801Z,34.80
2022-08-10T15:40:24.960Z,33.50
2022-08-10T15:43:05.719Z,34.00
2022-08-10T15:46:03.397Z,33.53
2022-08-10T15:48:48.743Z,33.57
2022-08-10T15:51:54.025Z,33.48
2022-08-10T15:54:54.411Z,33.10
2022-08-10T15:57:58.510Z,34.30
2022-08-10T16:02:03.952Z,34.44
2022-08-10T16:04:34.251Z,34.24
2022-08-10T16:07:49.857Z,33.79
2022-08-10T16:10:38.685Z,35.05
2022-08-10T16:13:50.953Z,34.79
2022-08-10T16:16:41.193Z,33.49
2022-08-10T16:19:23.915Z,34.01
2022-08-10T16:21:59.081Z,33.53
2022-08-10T16:24:31.860Z,33.72
2022-08-10T16:27:04.863Z,33.90
2022-08-10T16:29:56.057Z,34.24
2022-08-10T16:32:24.385Z,33.55
2022-08-10T16:34:53.920Z,33.57
2022-08-10T16:37:22.275Z,33.97
2022-08-10T16:39:57.686Z,33.88
2022-08-10T16:42:34.456Z,33.38
2022-08-10T16:45:15.108Z,33.67
2022-08-10T16:47:48.427Z,34.73
2022-08-10T16:50:23.220Z,33.15
2022-08-10T16:52:53.037Z,33.66
2022-08-10T16:55:48.836Z,37.11
2022-08-10T16:58:14.285Z,33.98
2022-08-10T17:00:49.514Z,34.23
2022-08-10T17:04:07.649Z,35.01
2022-08-10T17:06:30.513Z,34.98
2022-08-10T17:09:01.461Z,36.00
2022-08-10T17:11:33.512Z,35.44
2022-08-10T17:14:02.802Z,36.03
2022-08-10T17:16:41.761Z,36.28
2022-08-10T17:19:18.826Z,35.25
2022-08-10T17:21:52.327Z,35.80
2022-08-10T17:24:26.480Z,35.61
2022-08-10T17:26:57.710Z,36.19
2022-08-10T17:29:57.879Z,35.68
2022-08-10T17:32:43.932Z,35.87
2022-08-10T17:35:23.484Z,36.43
2022-08-10T17:38:13.298Z,35.76
2022-08-10T17:41:00.689Z,35.77
2022-08-10T17:43:46.117Z,37.04
2022-08-10T17:46:17.170Z,36.24
2022-08-10T17:48:44.747Z,36.89
2022-08-10T17:51:15.508Z,37.79
2022-08-10T17:53:47.536Z,37.57
2022-08-10T17:56:18.825Z,39.83
2022-08-10T17:58:51.287Z,39.74
2022-08-10T18:01:41.717Z,38.96
2022-08-10T18:04:19.316Z,38.41
2022-08-10T18:06:54.666Z,38.95
2022-08-10T18:09:33.057Z,38.79
2022-08-10T18:12:10.989Z,38.63
2022-08-10T18:14:49.672Z,38.99
2022-08-10T18:17:31.955Z,39.35
2022-08-10T18:20:07.836Z,40.36
2022-08-10T18:22:43.369Z,41.44
2022-08-10T18:25:18.403Z,40.39
2022-08-10T18:28:03.976Z,41.20
2022-08-10T18:30:45.108Z,40.58
2022-08-10T18:33:14.384Z,41.19
2022-08-10T18:35:45.056Z,40.70
2022-08-10T18:38:13.459Z,42.01
2022-08-10T18:40:51.042Z,41.18
2022-08-10T18:44:06.270Z,40.91
2022-08-10T18:46:16.442Z,40.87
2022-08-10T18:48:52.483Z,40.54
2022-08-10T18:51:27.042Z,40.52
2022-08-10T18:54:31.480Z,40.49
2022-08-10T18:57:32.245Z,40.33
2022-08-10T19:00:07.593Z,40.78
2022-08-10T19:02:44.845Z,40.91
2022-08-10T19:05:30.680Z,42.47
2022-08-10T19:08:30.241Z,43.06
2022-08-10T19:11:47.868Z,45.75
2022-08-10T19:14:27.226Z,43.80
2022-08-10T19:17:05.725Z,43.81
2022-08-10T19:20:02.170Z,44.11
2022-08-10T19:22:41.385Z,43.55
2022-08-10T19:26:39.383Z,42.52
2022-08-10T19:28:33.705Z,42.66
2022-08-10T19:31:44.373Z,41.82
2022-08-10T19:34:40.116Z,41.28
2022-08-10T19:37:10.494Z,41.08
2022-08-10T19:39:51.621Z,41.82
2022-08-10T19:42:31.081Z,41.18
2022-08-10T19:46:02.189Z,40.93
2022-08-10T19:48:41.194Z,42.69
2022-08-10T19:51:18.653Z,43.40
2022-08-10T19:54:23.557Z,44.47
2022-08-10T19:57:14.224Z,44.68
2022-08-10T20:00:19.176Z,45.95
2022-08-10T20:03:17.015Z,46.43
2022-08-10T20:06:13.394Z,46.98
2022-08-10T20:08:59.728Z,47.89
2022-08-10T20:11:46.380Z,47.51
2022-08-10T20:14:22.970Z,48.25
2022-08-10T20:16:56.046Z,47.25
2022-08-10T20:19:52.403Z,49.16
2022-08-10T20:22:29.237Z,48.28
2022-08-10T20:25:04.632Z,49.42
2022-08-10T20:27:57.796Z,50.54
2022-08-10T20:30:37.465Z,50.40
2022-08-10T20:33:29.301Z,50.00
2022-08-10T20:36:19.461Z,50.91
2022-08-10T20:39:01.938Z,49.06
2022-08-10T20:41:46.471Z,49.22
2022-08-10T20:44:29.191Z,49.11
2022-08-10T20:47:22.068Z,49.34
2022-08-10T20:50:01.312Z,50.60
2022-08-10T20:52:31.624Z,50.15
2022-08-10T20:55:02.895Z,51.76
2022-08-10T20:57:55.382Z,51.02
2022-08-10T21:00:48.895Z,50.83
2022-08-10T21:03:40.674Z,50.66
2022-08-10T21:06:43.366Z,51.10
2022-08-10T21:09:37.369Z,51.37
2022-08-10T21:12:30.335Z,51.74
2022-08-10T21:15:20.518Z,51.25
2022-08-10T21:17:50.695Z,51.70
2022-08-10T21:21:06.043Z,51.13
2022-08-10T21:23:38.427Z,51.45
2022-08-10T21:26:08.120Z,51.28
2022-08-10T21:29:13.357Z,51.40
2022-08-10T21:32:01.716Z,50.86
2022-08-10T21:34:32.122Z,50.27
2022-08-10T21:37:08.442Z,50.65
2022-08-10T21:39:44.703Z,51.07
2022-08-10T21:42:47.401Z,52.89
2022-08-10T21:45:59.173Z,52.52
2022-08-10T21:48:57.751Z,51.24
2022-08-10T21:52:00.609Z,51.25
2022-08-10T21:55:10.547Z,49.41
2022-08-10T21:57:59.293Z,49.73
2022-08-10T22:00:45.737Z,51.63
2022-08-10T22:03:39.287Z,48.95
2022-08-10T22:06:28.062Z,50.18
2022-08-10T22:09:21.903Z,50.43
2022-08-10T22:12:25.015Z,50.75
2022-08-10T22:16:09.950Z,49.45
2022-08-10T22:18:35.889Z,49.60
2022-08-10T22:21:50.438Z,49.28
2022-08-10T22:25:24.571Z,49.35
2022-08-10T22:29:20.759Z,49.47
2022-08-10T22:33:33.384Z,49.92
2022-08-10T22:42:09.470Z,51.18
2022-08-10T22:50:14.021Z,52.18
2022-08-10T22:53:34.703Z,52.49
2022-08-10T22:56:47.973Z,53.07
